Time;durP1;ratioP1;P1;durP2;ratioP2;P2;SDS_P1;SDS_P2;PMS_P1;PMS_P2;Temp;Humidity;BMP_temperature;BMP_pressure;BME280_temperature;BME280_humidity;BME280_pressure;Samples;Min_cycle;Max_cycle;Signal;HPM_P1;HPM_P2
2022/12/23 00:01:34;;;;;;;9.32;5.88;;;9.80;99.90;;;;;;5104686;28;20435;-72
2022/12/23 00:04:00;;;;;;;6.38;5.07;;;9.80;99.90;;;;;;5091942;28;20426;-71
2022/12/23 00:06:27;;;;;;;7.68;4.57;;;9.90;99.90;;;;;;5098708;28;20416;-71
2022/12/23 00:08:57;;;;;;;6.30;3.90;;;9.90;99.90;;;;;;5107104;28;20798;-70
2022/12/23 00:11:25;;;;;;;5.97;3.58;;;10.00;99.90;;;;;;5111186;28;20436;-71
2022/12/23 00:16:37;;;;;;;6.10;3.60;;;10.00;99.90;;;;;;5114220;28;20415;-71
2022/12/23 00:19:04;;;;;;;5.60;3.77;;;10.00;99.90;;;;;;5111083;28;20436;-72
2022/12/23 00:21:31;;;;;;;4.97;3.45;;;10.00;99.90;;;;;;5119161;28;20913;-73
2022/12/23 00:23:59;;;;;;;5.55;4.05;;;10.00;99.90;;;;;;5115321;28;20424;-73
2022/12/23 00:26:27;;;;;;;5.20;3.70;;;9.90;99.90;;;;;;5117889;28;20439;-71
2022/12/23 00:28:56;;;;;;;6.75;4.22;;;9.90;99.90;;;;;;5113895;28;20440;-71
2022/12/23 00:31:23;;;;;;;6.15;4.00;;;10.00;99.90;;;;;;5111428;28;20480;-71
2022/12/23 00:33:52;;;;;;;6.57;4.10;;;9.90;99.90;;;;;;5111078;28;20665;-71
2022/12/23 00:36:21;;;;;;;7.10;4.28;;;9.90;99.90;;;;;;5101124;28;20780;-71
2022/12/23 00:44:18;;;;;;;5.82;4.20;;;9.90;99.90;;;;;;5102601;28;20538;-70
2022/12/23 00:46:45;;;;;;;5.68;4.40;;;10.00;99.90;;;;;;5110867;28;20428;-70
2022/12/23 00:51:57;;;;;;;4.90;4.03;;;9.90;99.90;;;;;;5110656;28;21003;-72
2022/12/23 00:54:23;;;;;;;7.50;4.22;;;9.90;99.90;;;;;;5106973;28;20415;-72
2022/12/23 00:56:51;;;;;;;6.60;4.20;;;9.90;99.90;;;;;;5097644;28;20428;-71
2022/12/23 00:59:18;;;;;;;5.25;4.10;;;9.90;99.90;;;;;;5111066;28;20431;-71
2022/12/23 01:07:13;;;;;;;5.78;4.07;;;9.80;99.90;;;;;;5106962;28;20410;-71
2022/12/23 01:09:40;;;;;;;5.80;3.78;;;9.80;99.90;;;;;;5110471;28;20423;-71
2022/12/23 01:12:08;;;;;;;5.72;4.25;;;9.90;99.90;;;;;;5110694;28;20416;-71
2022/12/23 01:14:35;;;;;;;4.50;3.53;;;9.90;99.90;;;;;;5110020;28;20424;-71
2022/12/23 01:17:02;;;;;;;3.70;3.17;;;9.90;99.90;;;;;;5101634;28;20428;-71
2022/12/23 01:19:29;;;;;;;3.88;3.08;;;9.90;99.90;;;;;;5109515;28;20416;-71
2022/12/23 01:21:56;;;;;;;4.63;2.90;;;10.00;99.90;;;;;;5095597;28;20414;-71
2022/12/23 01:24:23;;;;;;;3.15;2.53;;;10.00;99.90;;;;;;5109022;28;20431;-71
2022/12/23 01:26:50;;;;;;;2.53;2.33;;;9.90;99.90;;;;;;5109457;28;20933;-71
2022/12/23 01:29:18;;;;;;;3.03;2.20;;;10.00;99.90;;;;;;5109943;28;20450;-71
2022/12/23 01:31:44;;;;;;;2.75;2.00;;;10.00;99.90;;;;;;5102015;28;20437;-70
2022/12/23 01:34:11;;;;;;;2.87;2.03;;;10.00;99.90;;;;;;5101474;28;20430;-71
2022/12/23 01:36:38;;;;;;;3.38;2.40;;;10.00;99.90;;;;;;5104651;28;20439;-72
2022/12/23 01:39:05;;;;;;;2.55;1.80;;;10.00;99.90;;;;;;5106644;28;20431;-71
2022/12/23 01:44:52;;;;;;;2.83;1.98;;;10.00;99.90;;;;;;5109385;28;20434;-70
2022/12/23 01:47:26;;;;;;;3.50;1.60;;;9.90;99.90;;;;;;5106370;28;20435;-72
2022/12/23 01:49:57;;;;;;;2.30;1.67;;;9.90;99.90;;;;;;5107816;28;20428;-72
2022/12/23 01:52:24;;;;;;;1.90;1.60;;;10.00;99.90;;;;;;5106514;28;20408;-71
2022/12/23 01:54:51;;;;;;;2.50;1.50;;;10.00;99.90;;;;;;5109833;28;20647;-72
2022/12/23 01:57:18;;;;;;;2.60;1.60;;;10.00;99.90;;;;;;5104684;28;20437;-72
2022/12/23 02:05:19;;;;;;;2.25;1.52;;;10.00;99.90;;;;;;5105995;28;20419;-72
2022/12/23 02:10:42;;;;;;;2.42;1.60;;;10.10;99.90;;;;;;5097798;28;20397;-71
2022/12/23 02:13:14;;;;;;;2.60;1.80;;;10.10;99.90;;;;;;5096857;28;20416;-71
2022/12/23 02:18:57;;;;;;;3.50;2.40;;;10.10;99.90;;;;;;5100491;28;20914;-72
2022/12/23 02:21:41;;;;;;;2.60;2.28;;;10.00;99.90;;;;;;5102370;28;20428;-70
2022/12/23 02:24:44;;;;;;;3.58;2.67;;;10.00;99.90;;;;;;5108041;22;20443;-74
2022/12/23 02:27:16;;;;;;;3.75;2.60;;;10.00;99.90;;;;;;5061472;28;20419;-74
2022/12/23 02:30:07;;;;;;;3.22;2.90;;;10.00;99.90;;;;;;5065728;28;20435;-74
2022/12/23 02:32:51;;;;;;;4.43;3.20;;;10.00;99.90;;;;;;5058844;28;20419;-74
2022/12/23 02:35:27;;;;;;;4.00;3.50;;;10.00;99.90;;;;;;5062850;28;20445;-74
2022/12/23 02:38:00;;;;;;;3.97;3.08;;;10.00;99.90;;;;;;5064390;28;20512;-74
2022/12/23 02:40:35;;;;;;;4.35;3.25;;;10.10;99.90;;;;;;5062662;28;20747;-74
2022/12/23 02:43:06;;;;;;;5.32;3.67;;;10.10;99.90;;;;;;5062885;28;20776;-74
2022/12/23 02:45:39;;;;;;;5.00;4.50;;;10.10;99.90;;;;;;5064985;28;20898;-75
2022/12/23 02:48:11;;;;;;;4.75;4.25;;;10.10;99.90;;;;;;5064672;28;20484;-74
2022/12/23 02:50:40;;;;;;;6.55;4.50;;;10.10;99.90;;;;;;5065632;28;20535;-72
2022/12/23 02:53:13;;;;;;;5.90;5.30;;;10.10;99.90;;;;;;5064887;28;20542;-72
2022/12/23 02:55:44;;;;;;;7.10;5.28;;;10.20;99.90;;;;;;5065815;28;20926;-72
2022/12/23 02:58:14;;;;;;;6.63;5.80;;;10.20;99.90;;;;;;5064109;28;20464;-72
2022/12/23 03:00:42;;;;;;;7.50;6.55;;;10.20;99.90;;;;;;5064465;28;20900;-74
2022/12/23 03:03:11;;;;;;;7.57;6.30;;;10.20;99.90;;;;;;5062059;28;20427;-73
2022/12/23 03:05:40;;;;;;;6.97;6.28;;;10.30;99.90;;;;;;5065157;28;20769;-73
2022/12/23 03:08:13;;;;;;;6.32;5.75;;;10.20;99.90;;;;;;5065418;28;20450;-74
2022/12/23 03:10:53;;;;;;;5.93;5.10;;;10.30;99.90;;;;;;5065489;28;20431;-73
2022/12/23 03:13:30;;;;;;;5.50;5.10;;;10.30;99.90;;;;;;5058038;28;20427;-74
2022/12/23 03:16:08;;;;;;;5.00;4.20;;;10.30;99.90;;;;;;5069266;28;20435;-73
2022/12/23 03:18:51;;;;;;;4.87;4.10;;;10.30;99.90;;;;;;5068818;28;20421;-75
2022/12/23 03:21:24;;;;;;;4.70;3.95;;;10.40;99.90;;;;;;5062617;28;20804;-73
2022/12/23 03:23:56;;;;;;;4.68;3.55;;;10.50;99.90;;;;;;5064604;28;20999;-74
2022/12/23 03:26:28;;;;;;;5.27;3.73;;;10.40;99.90;;;;;;5067645;28;20411;-73
2022/12/23 03:28:58;;;;;;;5.80;3.40;;;10.40;99.90;;;;;;5068386;28;20430;-73
2022/12/23 03:31:29;;;;;;;4.73;3.00;;;10.50;99.90;;;;;;5062810;28;20519;-74
2022/12/23 03:34:01;;;;;;;4.77;3.30;;;10.50;99.90;;;;;;5066264;28;20802;-73
2022/12/23 03:36:32;;;;;;;3.75;2.70;;;10.50;99.90;;;;;;5068733;28;20427;-73
2022/12/23 03:39:02;;;;;;;5.35;2.90;;;10.50;99.90;;;;;;5066044;28;20454;-73
2022/12/23 03:41:35;;;;;;;6.30;3.10;;;10.50;99.90;;;;;;5064681;28;20419;-73
2022/12/23 03:44:06;;;;;;;4.13;2.90;;;10.60;99.90;;;;;;5061445;28;20434;-73
2022/12/23 03:46:37;;;;;;;5.35;2.53;;;10.50;99.90;;;;;;5053596;28;20467;-73
2022/12/23 03:49:09;;;;;;;6.15;2.60;;;10.50;99.90;;;;;;5063777;28;20431;-73
2022/12/23 03:51:40;;;;;;;4.00;2.40;;;10.50;99.90;;;;;;5060822;28;20407;-73
2022/12/23 03:54:12;;;;;;;4.95;2.30;;;10.40;99.90;;;;;;5062937;28;20423;-73
2022/12/23 03:56:42;;;;;;;3.67;2.30;;;10.40;99.90;;;;;;5064230;28;20434;-73
2022/12/23 03:59:14;;;;;;;5.95;2.20;;;10.50;99.90;;;;;;5064371;28;20442;-73
2022/12/23 04:02:08;;;;;;;3.67;2.15;;;10.50;99.90;;;;;;5062296;28;20435;-73
2022/12/23 04:04:50;;;;;;;5.03;1.90;;;10.50;99.90;;;;;;5059062;28;20450;-73
2022/12/23 04:07:21;;;;;;;4.05;1.80;;;10.40;99.90;;;;;;5060936;28;20829;-73
2022/12/23 04:09:49;;;;;;;3.00;1.95;;;10.50;99.90;;;;;;5064980;28;20503;-73
2022/12/23 04:12:16;;;;;;;3.10;1.60;;;10.40;99.80;;;;;;5063728;28;20432;-73
2022/12/23 04:14:47;;;;;;;3.10;1.70;;;10.40;99.90;;;;;;5062904;28;20498;-73
2022/12/23 04:17:14;;;;;;;4.43;2.08;;;10.40;99.70;;;;;;5062039;28;20446;-73
2022/12/23 04:19:44;;;;;;;4.75;1.80;;;10.40;99.70;;;;;;5063788;28;20466;-73
2022/12/23 04:22:11;;;;;;;4.05;2.10;;;10.50;99.50;;;;;;5064367;28;20412;-73
2022/12/23 04:24:37;;;;;;;3.67;1.80;;;10.50;99.40;;;;;;5063215;28;20434;-73
2022/12/23 04:27:04;;;;;;;3.15;1.88;;;10.50;99.40;;;;;;5064174;28;20426;-73
2022/12/23 04:29:31;;;;;;;3.50;1.80;;;10.50;99.40;;;;;;5063821;28;20433;-73
2022/12/23 04:31:58;;;;;;;2.33;1.60;;;10.40;99.40;;;;;;5063483;28;20431;-73
2022/12/23 04:34:25;;;;;;;3.63;1.70;;;10.40;99.50;;;;;;5062957;28;20435;-73
2022/12/23 04:36:53;;;;;;;3.20;1.90;;;10.40;99.40;;;;;;5064060;28;20965;-73
2022/12/23 04:39:19;;;;;;;4.22;2.30;;;10.30;99.50;;;;;;5063753;28;20455;-74
2022/12/23 04:41:46;;;;;;;3.37;2.10;;;10.30;99.70;;;;;;5063960;28;20514;-73
2022/12/23 04:44:13;;;;;;;4.22;2.22;;;10.20;99.90;;;;;;5063120;28;20451;-73
2022/12/23 04:46:40;;;;;;;4.28;2.60;;;10.20;99.90;;;;;;5062902;28;20437;-73
2022/12/23 04:49:07;;;;;;;4.53;2.28;;;10.30;99.90;;;;;;5062567;28;20431;-73
2022/12/23 04:51:33;;;;;;;3.92;2.33;;;10.20;99.90;;;;;;5064449;28;20418;-73
2022/12/23 04:54:02;;;;;;;4.50;2.27;;;10.20;99.90;;;;;;5071435;28;20513;-73
2022/12/23 04:56:28;;;;;;;3.60;2.00;;;10.20;99.90;;;;;;5069688;28;20420;-73
2022/12/23 04:58:55;;;;;;;3.78;2.15;;;10.20;99.90;;;;;;5077382;28;20457;-73
2022/12/23 05:01:22;;;;;;;3.35;2.30;;;10.30;99.90;;;;;;5079350;28;20522;-74
2022/12/23 05:03:48;;;;;;;3.80;1.90;;;10.20;99.90;;;;;;5075821;28;20432;-73
2022/12/23 05:06:15;;;;;;;3.30;2.13;;;10.20;99.90;;;;;;5074176;28;20411;-74
2022/12/23 05:08:42;;;;;;;3.05;2.10;;;10.20;99.90;;;;;;5083307;28;20909;-73
2022/12/23 05:11:10;;;;;;;2.73;2.00;;;10.20;99.90;;;;;;5088879;28;20495;-73
2022/12/23 05:13:36;;;;;;;4.43;2.25;;;10.20;99.90;;;;;;5085754;28;20431;-73
2022/12/23 05:16:04;;;;;;;3.08;1.90;;;10.20;99.90;;;;;;5085513;28;20427;-75
2022/12/23 05:18:30;;;;;;;2.90;1.98;;;10.20;99.90;;;;;;5088356;28;20434;-74
2022/12/23 05:20:57;;;;;;;4.35;2.08;;;10.20;99.90;;;;;;5083418;28;20422;-73
2022/12/23 05:23:24;;;;;;;3.92;2.67;;;10.20;99.90;;;;;;5074685;28;20438;-74
2022/12/23 05:25:52;;;;;;;3.38;2.10;;;10.10;99.90;;;;;;5072160;28;20511;-73
2022/12/23 05:28:21;;;;;;;3.43;1.90;;;10.10;99.90;;;;;;5070071;28;20512;-73
2022/12/23 05:30:47;;;;;;;3.95;2.10;;;10.20;99.90;;;;;;5068168;28;20426;-73
2022/12/23 05:33:15;;;;;;;2.83;2.10;;;10.20;99.90;;;;;;5067721;28;20515;-73
2022/12/23 05:35:41;;;;;;;2.70;2.50;;;10.10;99.90;;;;;;5066093;28;20481;-73
2022/12/23 05:38:08;;;;;;;4.03;2.10;;;10.10;99.90;;;;;;5067804;28;20427;-73
2022/12/23 05:40:35;;;;;;;3.33;2.30;;;10.20;99.90;;;;;;5067860;28;20427;-73
2022/12/23 05:43:01;;;;;;;4.18;2.33;;;10.20;99.90;;;;;;5066899;28;20834;-73
2022/12/23 05:45:30;;;;;;;4.32;2.50;;;10.20;99.90;;;;;;5066378;28;20431;-73
2022/12/23 05:47:56;;;;;;;3.92;2.60;;;10.20;99.90;;;;;;5067101;28;20424;-73
2022/12/23 05:50:23;;;;;;;3.83;2.42;;;10.10;99.90;;;;;;5060424;28;20435;-73
2022/12/23 05:52:50;;;;;;;3.88;2.47;;;10.10;99.90;;;;;;5066659;28;20874;-73
2022/12/23 05:55:17;;;;;;;4.32;2.55;;;10.20;99.90;;;;;;5066393;28;20427;-73
2022/12/23 05:57:43;;;;;;;5.30;2.60;;;10.20;99.90;;;;;;5065845;28;20882;-73
2022/12/23 06:00:11;;;;;;;3.80;2.50;;;10.20;99.90;;;;;;5064095;28;20589;-73
2022/12/23 06:02:39;;;;;;;3.90;2.58;;;10.10;99.90;;;;;;5059855;28;20889;-74
2022/12/23 06:05:07;;;;;;;3.60;2.40;;;10.20;99.90;;;;;;5061130;28;21064;-73
2022/12/23 06:07:34;;;;;;;3.70;2.30;;;10.20;99.90;;;;;;5065358;28;20526;-74
2022/12/23 06:10:00;;;;;;;4.72;2.45;;;10.20;99.90;;;;;;5065706;28;20427;-73
2022/12/23 06:12:27;;;;;;;3.10;2.00;;;10.20;99.90;;;;;;5060818;28;20448;-73
2022/12/23 06:14:54;;;;;;;3.88;2.20;;;10.20;99.80;;;;;;5065849;28;20438;-74
2022/12/23 06:17:20;;;;;;;3.72;2.58;;;10.30;99.40;;;;;;5065277;28;20432;-73
2022/12/23 06:19:48;;;;;;;4.87;2.30;;;10.30;99.50;;;;;;5064620;28;20435;-74
2022/12/23 06:22:16;;;;;;;4.40;2.38;;;10.30;99.50;;;;;;5063374;28;20424;-74
2022/12/23 06:24:43;;;;;;;4.60;2.13;;;10.30;99.40;;;;;;5064120;28;20431;-73
2022/12/23 06:27:10;;;;;;;4.90;2.50;;;10.40;99.70;;;;;;5064029;28;20427;-74
2022/12/23 06:29:36;;;;;;;4.68;2.50;;;10.40;99.30;;;;;;5065719;28;20430;-73
2022/12/23 06:32:04;;;;;;;3.35;2.20;;;10.40;99.40;;;;;;5064534;28;20424;-74
2022/12/23 06:34:31;;;;;;;3.25;2.00;;;10.30;99.40;;;;;;5064343;28;20427;-73
2022/12/23 06:36:59;;;;;;;4.47;2.50;;;10.40;99.50;;;;;;5065528;28;20424;-74
2022/12/23 06:39:26;;;;;;;4.78;2.60;;;10.30;99.30;;;;;;5062994;28;20438;-74
2022/12/23 06:41:53;;;;;;;3.70;2.05;;;10.30;99.60;;;;;;5058264;28;20458;-74
2022/12/23 06:44:20;;;;;;;4.80;2.30;;;10.40;99.40;;;;;;5064585;28;20770;-74
2022/12/23 06:46:47;;;;;;;6.57;3.20;;;10.40;99.50;;;;;;5060197;28;20432;-73
2022/12/23 06:49:13;;;;;;;5.32;2.75;;;10.40;99.50;;;;;;5062505;28;20737;-73
2022/12/23 06:51:40;;;;;;;4.32;2.75;;;10.30;99.80;;;;;;5060600;28;20455;-74
2022/12/23 06:54:10;;;;;;;5.20;2.90;;;10.30;99.90;;;;;;5064334;28;20545;-77
2022/12/23 06:56:37;;;;;;;3.67;2.80;;;10.30;99.90;;;;;;5065537;28;20450;-77
2022/12/23 06:59:04;;;;;;;3.70;3.20;;;10.30;99.90;;;;;;5064064;28;20494;-75
2022/12/23 07:01:31;;;;;;;4.60;3.40;;;10.20;99.90;;;;;;5060725;28;20435;-75
2022/12/23 07:03:57;;;;;;;5.63;3.08;;;10.20;99.90;;;;;;5061840;28;20439;-76
2022/12/23 07:06:24;;;;;;;5.27;3.30;;;10.20;99.90;;;;;;5062277;28;20538;-76
2022/12/23 07:08:51;;;;;;;3.83;3.10;;;10.10;99.90;;;;;;5064055;28;20435;-76
2022/12/23 07:11:19;;;;;;;4.07;2.90;;;10.10;99.90;;;;;;5060490;28;20499;-77
2022/12/23 07:13:46;;;;;;;3.55;3.08;;;10.20;99.90;;;;;;5066583;28;20442;-77
2022/12/23 07:16:13;;;;;;;4.20;3.35;;;10.20;99.90;;;;;;5067196;28;20549;-76
2022/12/23 07:18:40;;;;;;;3.60;3.30;;;10.20;99.90;;;;;;5066604;28;20415;-76
2022/12/23 07:21:07;;;;;;;5.90;4.00;;;10.10;99.90;;;;;;5064522;28;20440;-76
2022/12/23 07:23:34;;;;;;;4.88;4.38;;;10.10;99.90;;;;;;5064181;28;20442;-76
2022/12/23 07:26:00;;;;;;;6.57;4.30;;;10.10;99.90;;;;;;5064819;28;20428;-76
2022/12/23 07:28:28;;;;;;;5.80;4.70;;;10.00;99.90;;;;;;5065502;28;20423;-76
2022/12/23 07:30:55;;;;;;;4.65;4.25;;;10.00;99.90;;;;;;5063319;28;20431;-76
2022/12/23 07:33:22;;;;;;;5.90;4.65;;;10.00;99.90;;;;;;5058405;28;20830;-76
2022/12/23 07:35:49;;;;;;;4.70;4.30;;;10.00;99.90;;;;;;5062204;28;20495;-76
2022/12/23 07:38:15;;;;;;;5.68;4.50;;;10.00;99.90;;;;;;5061873;28;20435;-77
2022/12/23 07:40:42;;;;;;;5.22;4.20;;;10.00;99.90;;;;;;5062477;28;20435;-76
2022/12/23 07:43:09;;;;;;;5.35;4.00;;;10.00;99.90;;;;;;5063075;28;20432;-76
2022/12/23 07:45:38;;;;;;;4.25;3.85;;;10.00;99.90;;;;;;5058038;28;20436;-77
2022/12/23 07:48:04;;;;;;;4.32;3.92;;;10.00;99.90;;;;;;5055405;28;20449;-76
2022/12/23 07:50:31;;;;;;;6.30;4.97;;;10.00;99.90;;;;;;5064996;28;20480;-76
2022/12/23 07:52:58;;;;;;;5.72;4.55;;;10.00;99.90;;;;;;5061306;28;20758;-76
2022/12/23 07:55:25;;;;;;;5.68;4.32;;;10.00;99.90;;;;;;5063899;28;20418;-77
2022/12/23 07:57:53;;;;;;;4.60;3.90;;;10.00;99.90;;;;;;5063650;28;20473;-77
2022/12/23 08:00:20;;;;;;;4.53;4.13;;;10.00;99.90;;;;;;5061965;28;20781;-74
2022/12/23 08:02:49;;;;;;;4.40;4.00;;;10.00;99.90;;;;;;5061389;28;20441;-74
2022/12/23 08:05:17;;;;;;;4.20;3.80;;;10.00;99.90;;;;;;5059122;28;20447;-74
2022/12/23 08:07:44;;;;;;;4.65;4.05;;;10.00;99.90;;;;;;5060455;28;20483;-74
2022/12/23 08:10:12;;;;;;;4.07;3.47;;;10.00;99.90;;;;;;5053892;28;20487;-75
2022/12/23 08:12:38;;;;;;;4.88;3.90;;;10.00;99.90;;;;;;5055564;28;20430;-74
2022/12/23 08:15:07;;;;;;;5.53;3.83;;;10.00;99.90;;;;;;5059570;28;21033;-75
2022/12/23 08:17:33;;;;;;;6.65;5.95;;;10.00;99.90;;;;;;5058949;28;20431;-73
2022/12/23 08:20:02;;;;;;;4.88;4.10;;;10.00;99.90;;;;;;5052838;28;20439;-74
2022/12/23 08:22:31;;;;;;;4.60;4.20;;;9.90;99.90;;;;;;5063367;28;20439;-75
2022/12/23 08:24:58;;;;;;;4.82;4.00;;;10.00;99.90;;;;;;5067221;22;20451;-71
2022/12/23 08:27:25;;;;;;;5.15;4.65;;;10.10;99.90;;;;;;5041681;28;20786;-73
2022/12/23 08:29:52;;;;;;;6.00;4.63;;;10.10;99.90;;;;;;5035613;28;20769;-73
2022/12/23 08:32:18;;;;;;;4.55;4.00;;;10.10;99.90;;;;;;5046164;28;20911;-72
2022/12/23 08:34:45;;;;;;;5.70;5.00;;;10.10;99.90;;;;;;5050362;28;20452;-67
2022/12/23 08:37:13;;;;;;;5.35;4.50;;;10.20;99.90;;;;;;5036795;28;20436;-68
2022/12/23 08:39:41;;;;;;;4.60;4.20;;;10.30;99.90;;;;;;5044967;28;20570;-69
2022/12/23 08:42:07;;;;;;;4.30;3.90;;;10.30;99.90;;;;;;5046304;28;20452;-69
2022/12/23 08:44:34;;;;;;;4.00;3.60;;;10.40;99.90;;;;;;5039967;28;20419;-67
2022/12/23 08:47:01;;;;;;;4.60;4.00;;;10.40;99.90;;;;;;5046050;28;20489;-68
2022/12/23 08:49:28;;;;;;;4.35;3.60;;;10.30;99.90;;;;;;5048761;28;20433;-68
2022/12/23 08:51:54;;;;;;;4.80;4.07;;;10.40;99.90;;;;;;5045231;28;20419;-68
2022/12/23 08:54:23;;;;;;;6.00;3.90;;;10.30;99.90;;;;;;5049187;28;20889;-69
2022/12/23 08:56:50;;;;;;;5.60;4.10;;;10.20;99.90;;;;;;5042588;28;20460;-69
2022/12/23 08:59:18;;;;;;;5.40;3.83;;;10.20;99.90;;;;;;5049685;28;21177;-69
2022/12/23 09:01:44;;;;;;;3.90;3.50;;;10.20;99.90;;;;;;5043434;28;20433;-69
2022/12/23 09:04:11;;;;;;;4.68;3.60;;;10.20;99.90;;;;;;5046585;28;20429;-69
2022/12/23 09:06:40;;;;;;;4.13;3.10;;;10.20;99.90;;;;;;5043272;28;20490;-70
2022/12/23 09:09:07;;;;;;;4.00;3.30;;;10.30;99.90;;;;;;5042534;28;20437;-69
2022/12/23 09:11:36;;;;;;;3.80;3.00;;;10.40;99.90;;;;;;5043040;28;20508;-69
2022/12/23 09:14:03;;;;;;;3.10;2.80;;;10.40;99.90;;;;;;5043934;28;20441;-68
2022/12/23 09:16:30;;;;;;;3.38;3.08;;;10.40;99.90;;;;;;5048472;28;20486;-69
2022/12/23 09:18:57;;;;;;;3.78;3.10;;;10.40;99.90;;;;;;5045571;28;20436;-71
2022/12/23 09:21:24;;;;;;;3.60;3.10;;;10.30;99.90;;;;;;5046751;28;20425;-71
2022/12/23 09:23:51;;;;;;;4.03;3.40;;;10.30;99.90;;;;;;5038477;28;20776;-71
2022/12/23 09:26:19;;;;;;;3.57;3.20;;;10.30;99.90;;;;;;5029314;28;20433;-71
2022/12/23 09:28:48;;;;;;;5.10;3.20;;;10.30;99.90;;;;;;5029906;28;20415;-70
2022/12/23 09:31:14;;;;;;;3.75;3.33;;;10.20;99.90;;;;;;5032359;28;20418;-69
2022/12/23 09:33:41;;;;;;;3.50;2.40;;;10.20;99.90;;;;;;5030363;28;20423;-70
2022/12/23 09:36:08;;;;;;;3.97;3.58;;;10.10;99.90;;;;;;5030356;28;20414;-70
2022/12/23 09:38:35;;;;;;;4.13;2.80;;;10.10;99.90;;;;;;5028318;28;20458;-69
2022/12/23 09:41:06;;;;;;;3.05;2.75;;;10.10;99.90;;;;;;5030417;28;20825;-69
2022/12/23 09:43:45;;;;;;;5.80;3.38;;;10.10;99.90;;;;;;5029453;28;20423;-69
2022/12/23 09:46:18;;;;;;;3.42;3.00;;;10.10;99.90;;;;;;5028007;28;20832;-69
2022/12/23 09:48:50;;;;;;;4.10;3.20;;;10.10;99.90;;;;;;5024708;28;20434;-71
2022/12/23 09:51:22;;;;;;;4.25;3.25;;;10.10;99.90;;;;;;5019601;28;20419;-71
2022/12/23 09:53:55;;;;;;;4.15;2.80;;;10.10;99.90;;;;;;5020444;28;20435;-71
2022/12/23 09:56:31;;;;;;;4.00;3.40;;;10.00;99.90;;;;;;5029682;28;20782;-71
2022/12/23 09:59:05;;;;;;;4.65;3.40;;;10.00;99.90;;;;;;5030206;28;20426;-70
2022/12/23 10:01:40;;;;;;;5.50;3.65;;;10.10;99.90;;;;;;5029776;28;20909;-70
2022/12/23 10:04:34;;;;;;;3.80;3.25;;;10.10;99.90;;;;;;5028993;28;20420;-70
2022/12/23 10:07:26;;;;;;;3.40;3.10;;;10.10;99.90;;;;;;5019184;28;20442;-70
2022/12/23 10:09:55;;;;;;;4.80;3.80;;;10.10;99.90;;;;;;5022819;28;20895;-70
2022/12/23 10:12:33;;;;;;;5.35;4.22;;;10.10;99.90;;;;;;5022875;28;20419;-70
2022/12/23 10:15:03;;;;;;;4.32;3.80;;;10.10;99.90;;;;;;5029228;28;20422;-69
2022/12/23 10:17:40;;;;;;;4.50;4.07;;;10.10;99.90;;;;;;5029269;28;20805;-70
2022/12/23 10:20:16;;;;;;;5.63;4.60;;;10.10;99.90;;;;;;5029388;28;20422;-69
2022/12/23 10:22:45;;;;;;;5.28;4.63;;;10.10;99.90;;;;;;5028791;28;20429;-69
2022/12/23 10:25:16;;;;;;;4.70;3.72;;;10.10;99.90;;;;;;5038011;28;20418;-69
2022/12/23 10:27:44;;;;;;;6.65;4.43;;;10.10;99.90;;;;;;5038527;28;20411;-70
2022/12/23 10:30:14;;;;;;;8.73;5.80;;;10.10;99.90;;;;;;5035365;28;20423;-71
2022/12/23 10:32:52;;;;;;;7.60;4.88;;;10.00;99.90;;;;;;5048626;28;20424;-68
2022/12/23 10:35:41;;;;;;;4.63;3.75;;;10.10;99.90;;;;;;5045763;28;20444;-70
2022/12/23 10:38:20;;;;;;;5.13;3.92;;;10.10;99.90;;;;;;5048623;28;20414;-67
2022/12/23 10:40:55;;;;;;;4.00;3.00;;;10.10;99.90;;;;;;5036691;28;20771;-67
2022/12/23 10:43:30;;;;;;;3.90;3.20;;;10.10;99.90;;;;;;5049043;28;20421;-67
2022/12/23 10:46:04;;;;;;;3.85;3.47;;;10.10;99.90;;;;;;5038525;28;20461;-67
2022/12/23 10:48:46;;;;;;;3.67;3.38;;;10.10;99.90;;;;;;5054309;28;20428;-71
2022/12/23 10:51:17;;;;;;;3.97;3.10;;;10.10;99.90;;;;;;5058445;28;20413;-70
2022/12/23 10:53:50;;;;;;;3.60;3.30;;;10.10;99.90;;;;;;5055262;28;20421;-68
2022/12/23 10:56:18;;;;;;;4.40;3.58;;;10.10;99.90;;;;;;5046744;28;20426;-68
2022/12/23 10:58:48;;;;;;;4.72;3.50;;;10.10;99.90;;;;;;5047671;28;20423;-68
2022/12/23 11:01:17;;;;;;;4.20;3.30;;;10.10;99.90;;;;;;5045675;28;20900;-67
2022/12/23 11:03:54;;;;;;;3.60;3.20;;;10.10;99.90;;;;;;5038016;28;20479;-68
2022/12/23 11:06:22;;;;;;;4.07;3.67;;;10.00;99.90;;;;;;5048415;28;20433;-69
2022/12/23 11:08:49;;;;;;;3.42;3.13;;;10.00;99.90;;;;;;5048992;28;20417;-69
2022/12/23 11:11:16;;;;;;;3.53;3.10;;;10.00;99.90;;;;;;5041987;28;20435;-69
2022/12/23 11:13:45;;;;;;;5.35;3.50;;;10.00;99.90;;;;;;5045796;28;20413;-68
2022/12/23 11:16:21;;;;;;;3.95;3.50;;;10.00;99.90;;;;;;5040918;28;20426;-69
2022/12/23 11:18:56;;;;;;;5.65;3.70;;;10.00;99.90;;;;;;5042343;28;20445;-69
2022/12/23 11:21:22;;;;;;;4.18;3.60;;;10.10;99.90;;;;;;5047674;28;20428;-68
2022/12/23 11:24:07;;;;;;;4.68;4.07;;;10.10;99.90;;;;;;5047223;28;20420;-68
2022/12/23 11:26:34;;;;;;;4.07;3.67;;;10.10;99.90;;;;;;5042703;28;20819;-67
2022/12/23 11:29:06;;;;;;;5.00;4.00;;;10.10;99.90;;;;;;5048499;28;20417;-69
2022/12/23 11:31:34;;;;;;;4.80;4.30;;;10.00;99.90;;;;;;5057343;28;20413;-81
2022/12/23 11:34:04;;;;;;;4.43;4.03;;;10.00;99.90;;;;;;5039723;28;20834;-69
2022/12/23 11:36:32;;;;;;;5.60;4.20;;;10.00;99.90;;;;;;5041779;28;20498;-68
2022/12/23 11:39:05;;;;;;;4.70;3.70;;;9.90;99.90;;;;;;5047011;28;20425;-67
2022/12/23 11:41:37;;;;;;;5.40;4.18;;;9.90;99.90;;;;;;5043429;28;20432;-67
2022/12/23 11:44:07;;;;;;;5.35;4.40;;;9.80;99.90;;;;;;5048358;28;20780;-68
2022/12/23 11:46:34;;;;;;;4.75;3.72;;;9.80;99.90;;;;;;5046363;28;20965;-67
2022/12/23 11:49:16;;;;;;;3.85;3.55;;;9.80;99.90;;;;;;5049785;28;20424;-67
2022/12/23 11:51:44;;;;;;;4.43;4.03;;;9.70;99.90;;;;;;5043335;28;20417;-68
2022/12/23 11:54:16;;;;;;;6.25;3.90;;;9.60;99.90;;;;;;5045617;28;20429;-67
2022/12/23 11:56:44;;;;;;;4.78;3.50;;;9.50;99.90;;;;;;5047356;28;20479;-67
2022/12/23 11:59:30;;;;;;;5.53;3.95;;;9.50;99.90;;;;;;5042638;28;20418;-66
2022/12/23 12:02:00;;;;;;;4.90;3.80;;;9.50;99.90;;;;;;5032552;28;20904;-67
2022/12/23 12:04:32;;;;;;;5.22;4.20;;;9.50;99.90;;;;;;5037759;28;20439;-66
2022/12/23 12:07:00;;;;;;;5.50;3.88;;;9.50;99.90;;;;;;5041596;28;20433;-67
2022/12/23 12:09:30;;;;;;;4.32;3.92;;;9.40;99.90;;;;;;5046432;28;20475;-66
2022/12/23 12:12:03;;;;;;;5.00;4.00;;;9.40;99.90;;;;;;5047439;28;20440;-67
2022/12/23 12:14:33;;;;;;;5.32;4.30;;;9.40;99.90;;;;;;5049851;28;20459;-67
2022/12/23 12:17:05;;;;;;;4.47;4.07;;;9.40;99.90;;;;;;5039784;28;20438;-69
2022/12/23 12:19:37;;;;;;;4.70;4.07;;;9.40;99.90;;;;;;5045233;28;20433;-71
2022/12/23 12:22:10;;;;;;;4.70;3.75;;;9.40;99.90;;;;;;5049569;28;20437;-66
2022/12/23 12:24:41;;;;;;;5.15;3.85;;;9.30;99.90;;;;;;5044783;28;20433;-67
2022/12/23 12:27:11;;;;;;;5.30;4.15;;;9.30;99.90;;;;;;5046313;28;20447;-67
2022/12/23 12:29:43;;;;;;;4.40;4.00;;;9.30;99.90;;;;;;5045352;28;20425;-68
2022/12/23 12:32:18;;;;;;;5.73;4.10;;;9.30;99.90;;;;;;5050963;28;20433;-66
2022/12/23 12:34:53;;;;;;;4.40;4.00;;;9.30;99.90;;;;;;5044233;28;20937;-67
2022/12/23 12:37:33;;;;;;;4.00;3.60;;;9.30;99.90;;;;;;5036367;28;20444;-66
2022/12/23 12:40:14;;;;;;;3.60;2.80;;;9.30;99.90;;;;;;5048217;28;21264;-65
2022/12/23 12:42:43;;;;;;;4.07;2.42;;;9.30;99.90;;;;;;5044474;28;20429;-64
2022/12/23 12:45:16;;;;;;;3.00;2.50;;;9.20;99.90;;;;;;5048274;28;20436;-66
2022/12/23 12:47:51;;;;;;;4.78;3.33;;;9.20;99.90;;;;;;5046734;28;21095;-66
2022/12/23 12:50:26;;;;;;;3.00;2.70;;;9.10;99.90;;;;;;5040481;28;20433;-66
2022/12/23 12:52:55;;;;;;;3.42;2.50;;;9.10;99.90;;;;;;5050520;28;20420;-67
2022/12/23 12:55:28;;;;;;;4.70;2.92;;;9.10;99.90;;;;;;5049750;28;20433;-65
2022/12/23 12:57:54;;;;;;;4.72;3.22;;;9.10;99.90;;;;;;5050865;28;20414;-66
2022/12/23 13:00:23;;;;;;;4.17;3.10;;;9.20;99.90;;;;;;5047939;28;21068;-66
2022/12/23 13:03:11;;;;;;;4.10;3.50;;;9.20;99.90;;;;;;5047472;28;20448;-66
2022/12/23 13:06:05;;;;;;;3.97;3.42;;;9.20;99.90;;;;;;5048218;28;20465;-65
2022/12/23 13:08:52;;;;;;;6.20;3.90;;;9.20;99.90;;;;;;5044884;28;20883;-66
2022/12/23 13:11:24;;;;;;;4.57;3.90;;;9.20;99.90;;;;;;5043172;28;20409;-67
2022/12/23 13:13:55;;;;;;;3.58;3.25;;;9.20;99.90;;;;;;5047390;28;20433;-67
2022/12/23 13:16:33;;;;;;;4.70;3.80;;;9.20;99.90;;;;;;5044781;28;20805;-67
2022/12/23 13:19:06;;;;;;;5.07;4.00;;;9.20;99.90;;;;;;5045834;28;20433;-65
2022/12/23 13:21:44;;;;;;;4.00;3.60;;;9.30;99.90;;;;;;5048805;28;20429;-65
2022/12/23 13:24:20;;;;;;;4.88;3.65;;;9.30;99.90;;;;;;5048249;28;20446;-66
2022/12/23 13:26:58;;;;;;;5.50;3.40;;;9.20;99.90;;;;;;5033180;28;20438;-64
2022/12/23 13:29:42;;;;;;;4.43;4.00;;;9.10;99.90;;;;;;5035907;28;20438;-65
2022/12/23 13:32:22;;;;;;;4.65;4.25;;;9.20;99.90;;;;;;5029933;28;20903;-64
2022/12/23 13:34:59;;;;;;;4.70;4.03;;;9.20;99.90;;;;;;5029853;28;20932;-65